Time;durP1;ratioP1;P1;durP2;ratioP2;P2;SDS_P1;SDS_P2;PMS_P1;PMS_P2;Temp;Humidity;BMP_temperature;BMP_pressure;BME280_temperature;BME280_humidity;BME280_pressure;Samples;Min_cycle;Max_cycle;Signal;HPM_P1;HPM_P2
2023/10/03 00:01:35;;;;;;;;;;;;;;;18.92;100.00;100432.25;4875580;29;20007;-76
2023/10/03 00:04:00;;;;;;;;;;;;;;;18.88;100.00;100428.28;4872927;29;19924;-77
2023/10/03 00:06:25;;;;;;;;;;;;;;;18.94;100.00;100430.25;4879275;29;19931;-74
2023/10/03 00:08:51;;;;;;;;;;;;;;;18.98;100.00;100436.91;4873671;29;19992;-74
2023/10/03 00:11:20;;;;;;;;;;;;;;;18.97;100.00;100434.41;4877969;29;19997;-75
2023/10/03 00:13:45;;;;;;;;;;;;;;;18.94;100.00;100435.59;4871840;29;20030;-75
2023/10/03 00:16:11;;;;;;;;;;;;;;;18.98;100.00;100431.56;4877377;29;20011;-74
2023/10/03 00:18:36;;;;;;;;;;;;;;;18.98;100.00;100436.91;4871398;29;19923;-74
2023/10/03 00:21:02;;;;;;;;;;;;;;;18.98;100.00;100423.53;4874258;29;19924;-73
2023/10/03 00:23:27;;;;;;;;;;;;;;;19.02;100.00;100416.84;4875939;29;19973;-76
2023/10/03 00:25:56;;;;;;;;;;;;;;;19.04;100.00;100420.16;4875047;29;19927;-76
2023/10/03 00:28:21;;;;;;;;;;;;;;;19.06;100.00;100415.47;4871351;29;19932;-76
2023/10/03 00:30:48;;;;;;;;;;;;;;;19.07;100.00;100419.81;4877431;29;19924;-76
2023/10/03 00:33:13;;;;;;;;;;;;;;;19.06;100.00;100407.47;4872595;29;20377;-75
2023/10/03 00:35:42;;;;;;;;;;;;;;;19.05;100.00;100411.13;4875143;29;19924;-74
2023/10/03 00:38:13;;;;;;;;;;;;;;;19.06;100.00;100412.81;4874264;29;19935;-74
2023/10/03 00:40:39;;;;;;;;;;;;;;;19.13;100.00;100415.59;4841576;29;19931;-75
2023/10/03 00:43:04;;;;;;;;;;;;;;;19.16;100.00;100410.72;4877016;29;19928;-75
2023/10/03 00:45:31;;;;;;;;;;;;;;;19.20;100.00;100408.53;4881332;29;19924;-75
2023/10/03 00:48:00;;;;;;;;;;;;;;;19.21;100.00;100404.84;4873870;29;19924;-75
2023/10/03 00:50:27;;;;;;;;;;;;;;;19.22;100.00;100402.00;4874528;29;19924;-75
2023/10/03 00:53:00;;;;;;;;;;;;;;;19.26;100.00;100398.97;4857017;29;19924;-75
2023/10/03 00:55:26;;;;;;;;;;;;;;;19.27;100.00;100403.28;4872154;29;20031;-75
2023/10/03 00:58:17;;;;;;;;;;;;;;;19.25;100.00;100399.97;4873784;29;19963;-76
2023/10/03 01:00:49;;;;;;;;;;;;;;;19.23;100.00;100395.63;4868173;29;20003;-76
2023/10/03 01:03:24;;;;;;;;;;;;;;;19.23;100.00;100406.34;4875814;29;19924;-75
2023/10/03 01:05:51;;;;;;;;;;;;;;;19.27;100.00;100392.59;4855244;29;19932;-75
2023/10/03 01:08:16;;;;;;;;;;;;;;;19.29;100.00;100402.13;4874306;29;19972;-75
2023/10/03 01:10:41;;;;;;;;;;;;;;;19.31;100.00;100383.22;4875965;29;19928;-75
2023/10/03 01:13:09;;;;;;;;;;;;;;;19.31;100.00;100393.91;4874630;29;19978;-75
2023/10/03 01:15:35;;;;;;;;;;;;;;;19.30;100.00;100384.22;4874677;29;19958;-75
2023/10/03 01:18:01;;;;;;;;;;;;;;;19.20;100.00;100382.59;4876477;29;19927;-75
2023/10/03 01:20:34;;;;;;;;;;;;;;;19.09;100.00;100380.34;4871397;29;20285;-75
2023/10/03 01:23:01;;;;;;;;;;;;;;;19.05;100.00;100378.19;4873246;29;19924;-74
2023/10/03 01:25:27;;;;;;;;;;;;;;;19.08;100.00;100373.34;4873627;29;20262;-74
2023/10/03 01:27:56;;;;;;;;;;;;;;;19.07;100.00;100377.03;4854668;29;19948;-74
2023/10/03 01:30:22;;;;;;;;;;;;;;;19.07;100.00;100371.69;4871915;29;19923;-74
2023/10/03 01:32:55;;;;;;;;;;;;;;;19.06;100.00;100367.31;4857305;29;20011;-75
2023/10/03 01:35:22;;;;;;;;;;;;;;;19.04;100.00;100369.34;4872984;29;20262;-75
2023/10/03 01:37:49;;;;;;;;;;;;;;;19.04;100.00;100365.81;4874748;29;19924;-74
2023/10/03 01:40:16;;;;;;;;;;;;;;;19.02;100.00;100368.69;4871161;29;19936;-74
2023/10/03 01:42:45;;;;;;;;;;;;;;;18.95;100.00;100367.75;4877402;29;19963;-77
2023/10/03 01:45:19;;;;;;;;;;;;;;;18.98;100.00;100362.03;4875749;29;19979;-76
2023/10/03 01:47:48;;;;;;;;;;;;;;;18.96;100.00;100366.75;4871271;29;20412;-76
2023/10/03 01:50:14;;;;;;;;;;;;;;;18.96;100.00;100358.72;4873398;29;19931;-76
2023/10/03 01:52:40;;;;;;;;;;;;;;;18.99;100.00;100369.03;4856403;29;19931;-76
2023/10/03 01:55:11;;;;;;;;;;;;;;;18.99;100.00;100353.00;4873168;29;19931;-76
2023/10/03 01:57:38;;;;;;;;;;;;;;;18.93;100.00;100353.69;4856430;29;20385;-73
2023/10/03 02:00:18;;;;;;;;;;;;;;;18.89;100.00;100352.41;4854088;29;19992;-75
2023/10/03 02:02:43;;;;;;;;;;;;;;;18.75;100.00;100350.47;4859132;29;20380;-75
2023/10/03 02:05:08;;;;;;;;;;;;;;;18.77;100.00;100348.47;4873198;29;19981;-75
2023/10/03 02:07:34;;;;;;;;;;;;;;;18.76;100.00;100347.63;4867989;29;20384;-75
2023/10/03 02:10:01;;;;;;;;;;;;;;;18.76;100.00;100344.94;4854515;29;19920;-74
2023/10/03 02:12:27;;;;;;;;;;;;;;;18.78;100.00;100345.63;4874215;29;19923;-74
2023/10/03 02:14:54;;;;;;;;;;;;;;;18.76;100.00;100339.59;4873013;29;20288;-74
2023/10/03 02:17:19;;;;;;;;;;;;;;;18.74;100.00;100343.44;4870444;29;19919;-75
2023/10/03 02:19:48;;;;;;;;;;;;;;;18.76;100.00;100336.09;4875350;29;19923;-75
2023/10/03 02:22:13;;;;;;;;;;;;;;;18.77;100.00;100337.78;4872837;29;19923;-74
2023/10/03 02:24:39;;;;;;;;;;;;;;;18.75;100.00;100339.78;4857610;29;19966;-74
2023/10/03 02:27:09;;;;;;;;;;;;;;;18.76;100.00;100336.09;4872907;29;19927;-73
2023/10/03 02:29:35;;;;;;;;;;;;;;;18.72;100.00;100330.28;4875702;29;19934;-74
2023/10/03 02:32:02;;;;;;;;;;;;;;;18.69;100.00;100325.28;4857530;29;19924;-75
2023/10/03 02:34:28;;;;;;;;;;;;;;;18.73;100.00;100325.78;4857132;29;20296;-75
2023/10/03 02:36:55;;;;;;;;;;;;;;;18.74;100.00;100322.91;4872868;29;19931;-74
2023/10/03 02:39:25;;;;;;;;;;;;;;;18.78;100.00;100323.41;4853920;29;19923;-74
2023/10/03 02:41:54;;;;;;;;;;;;;;;18.76;100.00;100325.41;4873990;29;19923;-74
2023/10/03 02:44:19;;;;;;;;;;;;;;;18.78;100.00;100323.41;4858992;29;19931;-74
2023/10/03 02:46:45;;;;;;;;;;;;;;;18.78;100.00;100323.41;4875676;29;20014;-76
2023/10/03 02:49:11;;;;;;;;;;;;;;;18.74;100.00;100328.25;4861897;29;19976;-74
2023/10/03 02:51:38;;;;;;;;;;;;;;;18.74;100.00;100314.03;4859676;29;19924;-75
2023/10/03 02:54:04;;;;;;;;;;;;;;;18.71;100.00;100309.06;4875759;29;19924;-75
2023/10/03 02:56:29;;;;;;;;;;;;;;;18.61;100.00;100316.50;4876998;29;19931;-75
2023/10/03 02:58:55;;;;;;;;;;;;;;;18.54;100.00;100310.13;4872643;29;20019;-76
2023/10/03 03:01:21;;;;;;;;;;;;;;;18.50;100.00;100312.31;4873669;29;20022;-74
2023/10/03 03:03:48;;;;;;;;;;;;;;;18.46;100.00;100312.84;4860270;29;19924;-74
2023/10/03 03:06:14;;;;;;;;;;;;;;;18.47;100.00;100319.84;4875975;29;19932;-74
2023/10/03 03:08:41;;;;;;;;;;;;;;;18.44;100.00;100320.22;4855799;29;20385;-74
2023/10/03 03:11:08;;;;;;;;;;;;;;;18.39;100.00;100312.72;4861635;29;20303;-75
2023/10/03 03:13:37;;;;;;;;;;;;;;;18.37;100.00;100314.75;4873107;29;19935;-74
2023/10/03 03:16:03;;;;;;;;;;;;;;;18.36;100.00;100313.91;4876709;29;19928;-75
2023/10/03 03:18:32;;;;;;;;;;;;;;;18.37;100.00;100309.41;4877255;29;20420;-74
2023/10/03 03:20:58;;;;;;;;;;;;;;;18.41;100.00;100300.84;4875917;29;19923;-74
2023/10/03 03:23:30;;;;;;;;;;;;;;;18.41;100.00;100305.34;4855335;29;20297;-73
2023/10/03 03:26:09;;;;;;;;;;;;;;;18.42;100.00;100307.88;4876705;29;19928;-74
2023/10/03 03:28:35;;;;;;;;;;;;;;;18.48;100.00;100300.16;4876155;29;19928;-74
2023/10/03 03:31:01;;;;;;;;;;;;;;;18.52;100.00;100306.81;4878044;29;19924;-74
2023/10/03 03:33:27;;;;;;;;;;;;;;;18.49;100.00;100302.66;4873951;29;20011;-75
2023/10/03 03:35:53;;;;;;;;;;;;;;;18.55;100.00;100301.16;4871726;29;20018;-74
2023/10/03 03:38:20;;;;;;;;;;;;;;;18.58;100.00;100306.13;4876342;29;19923;-74
2023/10/03 03:40:46;;;;;;;;;;;;;;;18.58;100.00;100309.63;4876921;29;20384;-74
2023/10/03 03:43:13;;;;;;;;;;;;;;;18.58;100.00;100308.81;4878316;29;20445;-74
2023/10/03 03:45:39;;;;;;;;;;;;;;;18.62;100.00;100308.28;4876993;29;19924;-74
2023/10/03 03:48:06;;;;;;;;;;;;;;;18.65;100.00;100301.75;4873630;29;19935;-74
2023/10/03 03:50:31;;;;;;;;;;;;;;;18.66;100.00;100298.06;4878927;29;19923;-74
2023/10/03 03:52:59;;;;;;;;;;;;;;;18.69;100.00;100311.06;4874301;29;20373;-75
2023/10/03 03:55:29;;;;;;;;;;;;;;;18.65;100.00;100301.75;4873979;29;19932;-74
2023/10/03 03:57:56;;;;;;;;;;;;;;;18.67;100.00;100299.75;4875498;29;19935;-75
2023/10/03 04:00:22;;;;;;;;;;;;;;;18.66;100.00;100298.06;4874095;29;20405;-74
2023/10/03 04:02:48;;;;;;;;;;;;;;;18.66;100.00;100292.72;4876551;29;20030;-74
2023/10/03 04:05:16;;;;;;;;;;;;;;;18.70;100.00;100300.22;4875495;29;19980;-74
2023/10/03 04:07:42;;;;;;;;;;;;;;;18.74;100.00;100306.03;4873879;29;20393;-74
2023/10/03 04:10:12;;;;;;;;;;;;;;;18.74;100.00;100304.19;4876985;29;19999;-75
2023/10/03 04:12:44;;;;;;;;;;;;;;;18.74;100.00;100298.00;4874793;29;20011;-75
2023/10/03 04:15:12;;;;;;;;;;;;;;;18.74;100.00;100303.34;4870900;29;20388;-74
2023/10/03 04:17:37;;;;;;;;;;;;;;;18.76;100.00;100304.00;4875614;29;19945;-74
2023/10/03 04:20:12;;;;;;;;;;;;;;;18.76;100.00;100294.16;4871714;29;20441;-75
2023/10/03 04:22:37;;;;;;;;;;;;;;;18.75;100.00;100302.34;4875211;29;19930;-74
2023/10/03 04:25:04;;;;;;;;;;;;;;;18.72;100.00;100300.03;4870446;29;19923;-73
2023/10/03 04:27:32;;;;;;;;;;;;;;;18.73;100.00;100297.16;4874439;29;19980;-75
2023/10/03 04:29:57;;;;;;;;;;;;;;;18.74;100.00;100292.66;4857478;29;19963;-74
2023/10/03 04:32:23;;;;;;;;;;;;;;;18.75;100.00;100288.97;4871465;29;20031;-74
2023/10/03 04:34:48;;;;;;;;;;;;;;;18.75;100.00;100297.84;4871655;29;20341;-75
2023/10/03 04:37:13;;;;;;;;;;;;;;;18.76;100.00;100293.31;4873225;29;19944;-74
2023/10/03 04:39:40;;;;;;;;;;;;;;;18.75;100.00;100292.47;4869025;29;19924;-75
2023/10/03 04:42:06;;;;;;;;;;;;;;;18.74;100.00;100289.97;4871334;29;19924;-74
2023/10/03 04:44:34;;;;;;;;;;;;;;;18.70;100.00;100294.03;4871922;29;20030;-74
2023/10/03 04:47:00;;;;;;;;;;;;;;;18.71;100.00;100293.03;4868971;29;19924;-74
2023/10/03 04:49:25;;;;;;;;;;;;;;;18.71;100.00;100295.69;4871228;29;19924;-74
2023/10/03 04:51:50;;;;;;;;;;;;;;;18.69;100.00;100293.19;4872380;29;20282;-74
2023/10/03 04:54:16;;;;;;;;;;;;;;;18.69;100.00;100292.34;4875055;29;19923;-77
2023/10/03 04:56:44;;;;;;;;;;;;;;;18.67;100.00;100295.19;4874899;29;19952;-75
2023/10/03 04:59:10;;;;;;;;;;;;;;;18.66;100.00;100287.38;4868156;29;19927;-79
2023/10/03 05:01:36;;;;;;;;;;;;;;;18.61;100.00;100284.41;4875714;29;19934;-75
2023/10/03 05:04:04;;;;;;;;;;;;;;;18.61;100.00;100295.09;4871986;29;19973;-76
2023/10/03 05:06:29;;;;;;;;;;;;;;;18.58;100.00;100285.59;4871438;29;19931;-78
2023/10/03 05:08:56;;;;;;;;;;;;;;;18.56;100.00;100287.59;4860743;29;19923;-78
2023/10/03 05:11:22;;;;;;;;;;;;;;;18.53;100.00;100281.75;4872928;29;20027;-76
2023/10/03 05:13:48;;;;;;;;;;;;;;;18.51;100.00;100295.28;4861864;29;20010;-75
2023/10/03 05:16:14;;;;;;;;;;;;;;;18.49;100.00;100285.78;4873277;29;19927;-78
2023/10/03 05:18:40;;;;;;;;;;;;;;;18.46;100.00;100296.81;4870080;29;20706;-78
2023/10/03 05:21:06;;;;;;;;;;;;;;;18.43;100.00;100298.00;4859880;29;19928;-79
2023/10/03 05:23:32;;;;;;;;;;;;;;;18.39;100.00;100292.16;4871617;29;19987;-79
2023/10/03 05:25:58;;;;;;;;;;;;;;;18.37;100.00;100299.53;4872802;29;19969;-78
2023/10/03 05:28:23;;;;;;;;;;;;;;;18.36;100.00;100297.88;4873670;29;20943;-74
2023/10/03 05:30:50;;;;;;;;;;;;;;;18.33;100.00;100298.22;4873896;29;19924;-76
2023/10/03 05:33:15;;;;;;;;;;;;;;;18.29;100.00;100298.75;4874088;29;19930;-77
2023/10/03 05:35:40;;;;;;;;;;;;;;;18.21;100.00;100294.25;4873435;29;19923;-77
2023/10/03 05:38:09;;;;;;;;;;;;;;;18.20;100.00;100292.59;4868102;29;19920;-77
2023/10/03 05:40:34;;;;;;;;;;;;;;;18.18;100.00;100297.28;4873328;29;20006;-76
2023/10/03 05:43:01;;;;;;;;;;;;;;;18.19;100.00;100296.28;4874609;29;20015;-76
2023/10/03 05:45:27;;;;;;;;;;;;;;;18.17;100.00;100295.63;4871442;29;19927;-76
2023/10/03 05:47:52;;;;;;;;;;;;;;;18.16;100.00;100301.97;4875311;29;19924;-76
2023/10/03 05:50:22;;;;;;;;;;;;;;;18.15;100.00;100305.63;4873629;29;19927;-78
2023/10/03 05:52:47;;;;;;;;;;;;;;;18.14;100.00;100309.34;4873076;29;20346;-76
2023/10/03 05:55:13;;;;;;;;;;;;;;;18.13;100.00;100302.31;4871855;29;19932;-77
2023/10/03 05:57:41;;;;;;;;;;;;;;;18.13;100.00;100302.31;4873932;29;20261;-77
2023/10/03 06:00:08;;;;;;;;;;;;;;;18.14;100.00;100303.16;4872206;29;19924;-77
2023/10/03 06:02:35;;;;;;;;;;;;;;;18.13;100.00;100312.19;4874719;29;20139;-77
2023/10/03 06:05:00;;;;;;;;;;;;;;;18.09;100.00;100308.16;4872523;29;20006;-77
2023/10/03 06:07:26;;;;;;;;;;;;;;;18.11;100.00;100308.84;4893694;23;20031;-78
2023/10/03 06:09:53;;;;;;;;;;;;;;;18.11;100.00;100309.66;4894203;29;20011;-79
2023/10/03 06:12:18;;;;;;;;;;;;;;;18.14;100.00;100309.34;4891544;29;19919;-81
2023/10/03 06:14:44;;;;;;;;;;;;;;;18.12;100.00;100319.34;4881961;29;19980;-80
2023/10/03 06:17:09;;;;;;;;;;;;;;;18.12;100.00;100315.84;4870769;29;19983;-79
2023/10/03 06:19:35;;;;;;;;;;;;;;;18.12;100.00;100315.84;4886128;29;19920;-80
2023/10/03 06:22:00;;;;;;;;;;;;;;;18.12;100.00;100313.19;4880348;29;20040;-79
2023/10/03 06:24:27;;;;;;;;;;;;;;;18.14;100.00;100312.00;4885163;29;20296;-80
2023/10/03 06:26:52;;;;;;;;;;;;;;;18.13;100.00;100313.00;4872944;29;19930;-79
2023/10/03 06:29:17;;;;;;;;;;;;;;;18.17;100.00;100314.31;4892961;29;19923;-79
2023/10/03 06:31:46;;;;;;;;;;;;;;;18.18;100.00;100316.00;4887575;29;20420;-80
2023/10/03 06:34:12;;;;;;;;;;;;;;;18.22;100.00;100316.47;4886682;29;19927;-79
2023/10/03 06:36:38;;;;;;;;;;;;;;;18.21;100.00;100310.28;4889986;29;19946;-78
2023/10/03 06:39:04;;;;;;;;;;;;;;;18.26;100.00;100305.25;4890462;29;19931;-79
2023/10/03 06:41:30;;;;;;;;;;;;;;;18.25;100.00;100310.78;4889906;29;20025;-79
2023/10/03 06:43:55;;;;;;;;;;;;;;;18.31;100.00;100310.94;4889911;29;20055;-79
2023/10/03 06:46:21;;;;;;;;;;;;;;;18.37;100.00;100309.41;4890024;29;19946;-79
2023/10/03 06:48:46;;;;;;;;;;;;;;;18.44;100.00;100314.88;4891042;29;20610;-80
2023/10/03 06:51:12;;;;;;;;;;;;;;;18.48;100.00;100316.19;4870475;29;20308;-79
2023/10/03 06:53:38;;;;;;;;;;;;;;;18.52;100.00;100317.50;4888083;29;20011;-79
2023/10/03 06:56:03;;;;;;;;;;;;;;;18.55;100.00;100319.88;4887268;29;19974;-80
2023/10/03 06:58:29;;;;;;;;;;;;;;;18.58;100.00;100322.16;4877962;29;19931;-79
2023/10/03 07:00:55;;;;;;;;;;;;;;;18.63;100.00;100319.78;4890508;29;19939;-80
2023/10/03 07:03:21;;;;;;;;;;;;;;;18.65;100.00;100323.97;4887149;29;19923;-80
2023/10/03 07:05:47;;;;;;;;;;;;;;;18.71;100.00;100323.25;4891435;29;19927;-78
2023/10/03 07:08:12;;;;;;;;;;;;;;;18.77;100.00;100321.72;4885079;29;19927;-78
2023/10/03 07:10:38;;;;;;;;;;;;;;;18.81;100.00;100325.69;4891166;29;20002;-79
2023/10/03 07:13:04;;;;;;;;;;;;;;;18.86;100.00;100330.50;4890893;29;20400;-79
2023/10/03 07:15:30;;;;;;;;;;;;;;;18.91;100.00;100323.63;4888248;29;19952;-79
2023/10/03 07:17:55;;;;;;;;;;;;;;;18.96;100.00;100323.94;4875069;29;19930;-78
2023/10/03 07:20:20;;;;;;;;;;;;;;;18.97;100.00;100328.25;4887121;29;20026;-78
2023/10/03 07:22:47;;;;;;;;;;;;;;;19.08;100.00;100325.19;4892414;29;20014;-78
2023/10/03 07:25:12;;;;;;;;;;;;;;;19.13;100.00;100322.81;4892409;29;19971;-78
2023/10/03 07:27:41;;;;;;;;;;;;;;;19.11;100.00;100330.16;4891353;29;19924;-78
2023/10/03 07:30:06;;;;;;;;;;;;;;;19.14;100.00;100332.47;4894042;29;19923;-79
2023/10/03 07:32:32;;;;;;;;;;;;;;;19.19;100.00;100338.16;4891112;29;19923;-78
2023/10/03 07:34:58;;;;;;;;;;;;;;;19.23;100.00;100334.09;4886558;29;20057;-78
2023/10/03 07:37:24;;;;;;;;;;;;;;;19.29;100.00;100337.06;4891617;29;20344;-78
2023/10/03 07:39:50;;;;;;;;;;;;;;;19.32;100.00;100342.06;4885355;29;19923;-78
2023/10/03 07:42:17;;;;;;;;;;;;;;;19.40;100.00;100339.28;4890939;29;19927;-77
2023/10/03 07:44:43;;;;;;;;;;;;;;;19.49;100.00;100332.91;4891375;29;19928;-77
2023/10/03 07:47:08;;;;;;;;;;;;;;;19.58;100.00;100339.84;4891084;29;20645;-77
2023/10/03 07:49:34;;;;;;;;;;;;;;;19.66;100.00;100334.41;4891126;29;19931;-78
2023/10/03 07:52:00;;;;;;;;;;;;;;;19.70;100.00;100334.88;4894753;29;19924;-78
2023/10/03 07:54:32;;;;;;;;;;;;;;;19.73;100.00;100340.72;4894942;29;19927;-78
2023/10/03 07:57:04;;;;;;;;;;;;;;;19.79;100.00;100331.91;4888255;29;19928;-78
2023/10/03 07:59:30;;;;;;;;;;;;;;;19.84;100.00;100337.56;4892670;29;20356;-78
2023/10/03 08:01:56;;;;;;;;;;;;;;;19.92;100.00;100334.78;4855126;29;19930;-76
2023/10/03 08:04:21;;;;;;;;;;;;;;;19.96;100.00;100338.78;4887698;29;20356;-77
2023/10/03 08:06:47;;;;;;;;;;;;;;;20.03;100.00;100336.19;4888077;29;20054;-78
2023/10/03 08:09:13;;;;;;;;;;;;;;;20.06;100.00;100335.81;4892090;29;20280;-78
2023/10/03 08:11:39;;;;;;;;;;;;;;;20.11;100.00;100333.41;4891250;29;20302;-78
2023/10/03 08:14:17;;;;;;;;;;;;;;;20.15;100.00;100333.84;4889980;29;20018;-78
2023/10/03 08:16:43;;;;;;;;;;;;;;;20.19;100.00;100335.19;4892507;29;19924;-78
2023/10/03 08:19:24;;;;;;;;;;;;;;;20.28;100.00;100334.88;4871977;29;19931;-78
2023/10/03 08:21:52;;;;;;;;;;;;;;;20.33;100.00;100337.03;4876360;29;19987;-77
2023/10/03 08:24:19;;;;;;;;;;;;;;;20.41;100.00;100337.75;4889784;29;19939;-78
2023/10/03 08:26:50;;;;;;;;;;;;;;;20.47;100.00;100341.53;4889534;29;19923;-78
2023/10/03 08:29:21;;;;;;;;;;;;;;;20.55;100.00;100346.81;4888157;29;19951;-79
2023/10/03 08:31:49;;;;;;;;;;;;;;;20.65;100.00;100352.69;4892140;29;19930;-77
2023/10/03 08:34:16;;;;;;;;;;;;;;;20.71;100.00;100346.59;4893795;29;19931;-79
2023/10/03 08:36:41;;;;;;;;;;;;;;;20.75;100.00;100344.34;4887223;29;20455;-77
2023/10/03 08:39:15;;;;;;;;;;;;;;;20.76;100.00;100344.16;4888266;29;20010;-78
2023/10/03 08:41:46;;;;;;;;;;;;;;;20.79;100.00;100349.13;4891176;29;19951;-78
2023/10/03 08:44:14;;;;;;;;;;;;;;;20.80;100.00;100340.06;4890398;29;20242;-79
2023/10/03 08:46:49;;;;;;;;;;;;;;;20.78;100.00;100342.13;4889562;29;19926;-77
2023/10/03 08:49:19;;;;;;;;;;;;;;;20.79;100.00;100343.75;4891123;29;20299;-78
2023/10/03 08:51:48;;;;;;;;;;;;;;;20.80;100.00;100340.06;4875756;29;19927;-78
2023/10/03 08:54:14;;;;;;;;;;;;;;;20.83;100.00;100342.38;4892460;29;20372;-78
2023/10/03 08:56:41;;;;;;;;;;;;;;;20.88;100.00;100339.13;4889209;29;19919;-77
2023/10/03 08:59:15;;;;;;;;;;;;;;;20.95;100.00;100337.34;4895609;29;19954;-77
2023/10/03 09:01:45;;;;;;;;;;;;;;;21.04;100.00;100338.03;4897250;29;19931;-77
2023/10/03 09:04:15;;;;;;;;;;;;;;;21.08;100.00;100342.03;4887606;29;19933;-78
2023/10/03 09:06:44;;;;;;;;;;;;;;;21.13;100.00;100339.59;4903200;29;19931;-79
2023/10/03 09:09:13;;;;;;;;;;;;;;;21.18;100.00;100337.19;4879197;29;20363;-78
2023/10/03 09:11:41;;;;;;;;;;;;;;;21.23;100.00;100329.38;4895861;29;20018;-78
2023/10/03 09:14:06;;;;;;;;;;;;;;;21.30;100.00;100335.66;4888541;29;20347;-78
2023/10/03 09:16:41;;;;;;;;;;;;;;;21.35;100.00;100333.22;4889048;29;19931;-77
2023/10/03 09:19:09;;;;;;;;;;;;;;;21.40;100.00;100336.13;4890250;29;19949;-77
2023/10/03 09:21:35;;;;;;;;;;;;;;;21.43;100.00;100333.09;4888809;29;20010;-77
2023/10/03 09:24:22;;;;;;;;;;;;;;;21.48;100.00;100336.00;4892019;29;20011;-78
2023/10/03 09:26:50;;;;;;;;;;;;;;;21.54;100.00;100337.91;4889688;29;20414;-77
2023/10/03 09:29:41;;;;;;;;;;;;;;;21.60;100.00;100336.31;4890291;29;20005;-78
2023/10/03 09:32:20;;;;;;;;;;;;;;;21.65;100.00;100334.69;4891033;29;19919;-78
2023/10/03 09:34:56;;;;;;;;;;;;;;;21.70;100.00;100335.97;4889739;29;19924;-78
2023/10/03 09:37:28;;;;;;;;;;;;;;;21.74;100.00;100329.16;4890465;29;19929;-77
2023/10/03 09:39:58;;;;;;;;;;;;;;;21.79;100.00;100324.06;4890706;29;20403;-76
2023/10/03 09:42:24;;;;;;;;;;;;;;;21.82;100.00;100318.28;4889729;29;20337;-77
2023/10/03 09:44:51;;;;;;;;;;;;;;;21.87;100.00;100321.19;4890816;29;20001;-78
2023/10/03 09:47:18;;;;;;;;;;;;;;;21.93;100.00;100320.41;4888968;29;19931;-78
2023/10/03 09:49:50;;;;;;;;;;;;;;;21.99;100.00;100319.66;4891828;29;19944;-78
2023/10/03 09:52:26;;;;;;;;;;;;;;;22.04;100.00;100314.50;4890599;29;20388;-77
2023/10/03 09:54:54;;;;;;;;;;;;;;;22.09;100.00;100309.34;4890740;29;19927;-77
2023/10/03 09:57:21;;;;;;;;;;;;;;;22.15;100.00;100305.88;4870707;29;19930;-77
2023/10/03 09:59:48;;;;;;;;;;;;;;;22.20;100.00;100306.13;4890274;29;19924;-77
2023/10/03 10:02:14;;;;;;;;;;;;;;;22.27;100.00;100306.97;4888940;29;19927;-78
2023/10/03 10:04:41;;;;;;;;;;;;;;;22.32;100.00;100304.53;4892023;29;19929;-78
2023/10/03 10:07:16;;;;;;;;;;;;;;;22.38;100.00;100302.91;4887539;29;19966;-78
2023/10/03 10:10:01;;;;;;;;;;;;;;;22.43;100.00;100301.25;4888687;29;19945;-78
2023/10/03 10:12:28;;;;;;;;;;;;;;;22.52;100.00;100298.38;4887507;29;20455;-77
2023/10/03 10:15:00;;;;;;;;;;;;;;;22.58;100.00;100290.31;4888267;29;20435;-78
2023/10/03 10:17:49;;;;;;;;;;;;;;;22.64;100.00;100283.31;4890641;29;19932;-78
2023/10/03 10:20:17;;;;;;;;;;;;;;;22.69;100.00;100283.53;4889147;29;19923;-78
2023/10/03 10:23:06;;;;;;;;;;;;;;;22.74;100.00;100281.06;4890532;29;19923;-77
2023/10/03 10:25:51;;;;;;;;;;;;;;;22.81;100.00;100288.13;4891458;29;19927;-79
2023/10/03 10:28:25;;;;;;;;;;;;;;;22.84;100.00;100273.47;4888734;29;19951;-78
2023/10/03 10:31:09;;;;;;;;;;;;;;;22.87;100.00;100275.72;4869965;29;19931;-78
2023/10/03 10:33:35;;;;;;;;;;;;;;;22.93;100.00;100274.06;4888365;29;19923;-77
2023/10/03 10:36:03;;;;;;;;;;;;;;;22.96;100.00;100263.75;4890785;29;19931;-77
2023/10/03 10:38:31;;;;;;;;;;;;;;;23.01;100.00;100261.25;4891053;29;20017;-77
2023/10/03 10:41:17;;;;;;;;;;;;;;;23.08;100.00;100266.66;4870928;29;19924;-78
2023/10/03 10:44:05;;;;;;;;;;;;;;;23.10;100.00;100260.00;4887813;29;19924;-78
2023/10/03 10:46:52;;;;;;;;;;;;;;;23.14;100.00;100261.28;4890969;29;19963;-78
2023/10/03 10:49:36;;;;;;;;;;;;;;;23.20;100.00;100255.06;4890651;29;19928;-76
2023/10/03 10:52:07;;;;;;;;;;;;;;;23.24;100.00;100258.16;4884975;29;19931;-77
2023/10/03 10:54:33;;;;;;;;;;;;;;;23.30;100.00;100243.03;4887072;29;19927;-78
2023/10/03 10:57:02;;;;;;;;;;;;;;;23.37;100.00;100251.94;4887664;29;19974;-77
2023/10/03 10:59:29;;;;;;;;;;;;;;;23.44;100.00;100247.38;4858036;29;19919;-78
2023/10/03 11:01:54;;;;;;;;;;;;;;;23.51;100.00;100245.50;4887272;29;19934;-77
2023/10/03 11:04:29;;;;;;;;;;;;;;;23.59;100.00;100242.59;4873297;29;19927;-78
2023/10/03 11:06:54;;;;;;;;;;;;;;;23.69;100.00;100237.59;4891031;29;19946;-78
2023/10/03 11:09:20;;;;;;;;;;;;;;;23.80;100.00;100231.53;4892585;29;20471;-78
2023/10/03 11:11:46;;;;;;;;;;;;;;;23.90;100.00;100233.81;4890834;29;19923;-77
2023/10/03 11:14:12;;;;;;;;;;;;;;;24.00;100.00;100229.63;4893996;29;20378;-78
2023/10/03 11:16:37;;;;;;;;;;;;;;;24.13;100.00;100230.59;4890457;29;20010;-78
2023/10/03 11:19:06;;;;;;;;;;;;;;;24.28;100.00;100217.69;4893729;29;19923;-77
2023/10/03 11:21:33;;;;;;;;;;;;;;;24.40;100.00;100218.66;4891258;29;19924;-78
2023/10/03 11:24:09;;;;;;;;;;;;;;;24.53;100.00;100218.59;4893667;29;19931;-77
2023/10/03 11:26:41;;;;;;;;;;;;;;;24.68;100.00;100211.00;4891258;29;19924;-78
2023/10/03 11:29:07;;;;;;;;;;;;;;;24.81;100.00;100208.22;4891111;29;19930;-78
2023/10/03 11:31:42;;;;;;;;;;;;;;;24.98;100.00;100205.00;4890339;29;19923;-78
2023/10/03 11:34:07;;;;;;;;;;;;;;;25.10;100.00;100208.63;4887036;29;19928;-78
2023/10/03 11:36:43;;;;;;;;;;;;;;;25.23;100.00;100203.09;4893889;29;20288;-77
2023/10/03 11:39:10;;;;;;;;;;;;;;;25.31;100.00;100189.31;4888311;29;19923;-78
2023/10/03 11:41:38;;;;;;;;;;;;;;;25.41;100.00;100195.03;4893501;29;19924;-77
2023/10/03 11:44:06;;;;;;;;;;;;;;;25.48;100.00;100190.41;4890133;29;19924;-77
2023/10/03 11:46:39;;;;;;;;;;;;;;;25.62;100.00;100189.22;4889980;29;19950;-77
2023/10/03 11:49:06;;;;;;;;;;;;;;;25.76;100.00;100180.97;4889446;29;20380;-77
2023/10/03 11:51:31;;;;;;;;;;;;;;;25.91;100.00;100173.28;4875885;29;19930;-78
2023/10/03 11:53:57;;;;;;;;;;;;;;;26.04;100.00;100171.22;4889641;29;20014;-78
2023/10/03 11:56:22;;;;;;;;;;;;;;;26.17;100.00;100167.53;4893056;29;19928;-78
2023/10/03 11:58:48;;;;;;;;;;;;;;;26.29;100.00;100171.13;4890119;29;20037;-77
2023/10/03 12:01:13;;;;;;;;;;;;;;;26.40;100.00;100164.91;4892641;29;19939;-77
2023/10/03 12:03:38;;;;;;;;;;;;;;;26.54;100.00;100162.84;4872615;29;19924;-78
2023/10/03 12:06:04;;;;;;;;;;;;;;;26.63;100.00;100164.16;4892868;29;20019;-79
2023/10/03 12:08:31;;;;;;;;;;;;;;;26.75;100.00;100158.75;4889953;29;19924;-79
2023/10/03 12:10:56;;;;;;;;;;;;;;;26.84;100.00;100158.19;4892934;29;19923;-77
2023/10/03 12:13:22;;;;;;;;;;;;;;;26.80;100.00;100148.88;4872972;29;19976;-79
2023/10/03 12:15:50;;;;;;;;;;;;;;;26.88;100.00;100147.75;4892391;29;19928;-79
2023/10/03 12:18:15;;;;;;;;;;;;;;;27.00;100.00;100145.84;4888830;29;19924;-77
2023/10/03 12:20:43;;;;;;;;;;;;;;;27.15;100.00;100146.22;4875733;29;19971;-77
2023/10/03 12:23:10;;;;;;;;;;;;;;;27.21;100.00;100137.16;4889710;29;19951;-78
2023/10/03 12:25:36;;;;;;;;;;;;;;;27.28;100.00;100137.81;4890757;29;20395;-78
2023/10/03 12:28:01;;;;;;;;;;;;;;;27.40;100.00;100129.69;4889485;29;19924;-78
2023/10/03 12:30:27;;;;;;;;;;;;;;;27.55;100.00;100132.75;4892762;29;19927;-78
2023/10/03 12:32:53;;;;;;;;;;;;;;;27.64;100.00;100125.06;4888789;29;19924;-78